createdAt,value
2018-02-15T00:00:01.672Z,1009.28
2018-02-15T00:01:01.727Z,1009.21
2018-02-15T00:02:01.607Z,1009.29
2018-02-15T00:03:01.637Z,1009.31
2018-02-15T00:04:01.551Z,1009.25
2018-02-15T00:05:01.574Z,1009.33
2018-02-15T00:06:01.491Z,1009.34
2018-02-15T00:07:01.583Z,1009.32
2018-02-15T00:08:01.431Z,1009.24
2018-02-15T00:09:01.469Z,1009.20
2018-02-15T00:10:01.370Z,1009.19
2018-02-15T00:11:01.380Z,1009.25
2018-02-15T00:12:01.309Z,1009.18
2018-02-15T00:13:01.393Z,1009.12
2018-02-15T00:14:01.252Z,1009.09
2018-02-15T00:15:01.304Z,1009.12
2018-02-15T00:16:01.192Z,1009.12
2018-02-15T00:17:01.225Z,1009.10
2018-02-15T00:18:01.132Z,1009.07
2018-02-15T00:19:01.121Z,1009.10
2018-02-15T00:20:01.075Z,1009.03
2018-02-15T00:21:01.132Z,1009.12
2018-02-15T00:22:01.014Z,1009.06
2018-02-15T00:23:01.045Z,1009.00
2018-02-15T00:24:00.957Z,1008.95
2018-02-15T00:25:00.959Z,1009.00
2018-02-15T00:26:00.894Z,1009.04
2018-02-15T00:27:00.968Z,1009.01
2018-02-15T00:28:00.834Z,1009.01
2018-02-15T00:29:00.879Z,1009.04
2018-02-15T00:30:00.779Z,1009.00
2018-02-15T00:31:00.788Z,1008.94
2018-02-15T00:32:00.713Z,1008.96
2018-02-15T00:33:00.802Z,1008.88
2018-02-15T00:34:00.658Z,1008.90
2018-02-15T00:35:00.711Z,1008.86
2018-02-15T00:36:00.606Z,1008.92
2018-02-15T00:37:00.621Z,1008.86
2018-02-15T00:38:00.541Z,1008.80
2018-02-15T00:39:00.536Z,1008.86
2018-02-15T00:40:00.483Z,1008.82
2018-02-15T00:41:00.544Z,1008.79
2018-02-15T00:42:00.421Z,1008.83
2018-02-15T00:43:00.463Z,1008.83
2018-02-15T00:44:00.361Z,1008.88
2018-02-15T00:45:00.366Z,1008.81
2018-02-15T00:46:00.299Z,1008.82
2018-02-15T00:47:00.376Z,1008.89
2018-02-15T00:48:00.241Z,1008.88
2018-02-15T00:49:00.289Z,1008.83
2018-02-15T00:50:00.181Z,1008.89
2018-02-15T00:51:00.193Z,1008.90
2018-02-15T00:52:00.122Z,1008.88
2018-02-15T00:53:00.105Z,1008.84
2018-02-15T00:54:00.059Z,1008.83
2018-02-15T00:55:00.118Z,1008.76
2018-02-15T00:56:00.001Z,1008.69
2018-02-15T00:57:00.031Z,1008.58
2018-02-15T00:57:59.946Z,1008.58
2018-02-15T00:58:59.939Z,1008.56
2018-02-15T00:59:59.882Z,1008.53
2018-02-15T01:00:59.951Z,1008.66
2018-02-15T01:01:59.820Z,1008.64
2018-02-15T01:02:59.866Z,1008.75
2018-02-15T01:03:59.762Z,1008.62
2018-02-15T01:04:59.772Z,1008.56
2018-02-15T01:05:59.700Z,1008.55
2018-02-15T01:06:59.786Z,1008.54
2018-02-15T01:07:59.643Z,1008.41
2018-02-15T01:08:59.695Z,1008.34
2018-02-15T01:09:59.580Z,1008.36
2018-02-15T01:10:59.611Z,1008.32
2018-02-15T01:11:59.521Z,1008.23
2018-02-15T01:12:59.518Z,1008.25
2018-02-15T01:13:59.465Z,1008.24
2018-02-15T01:14:59.538Z,1008.30
2018-02-15T01:15:59.404Z,1008.29
2018-02-15T01:16:59.437Z,1008.36
2018-02-15T01:17:59.342Z,1008.30
2018-02-15T01:18:59.348Z,1008.36
2018-02-15T01:19:59.284Z,1008.29
2018-02-15T01:20:59.360Z,1008.32
2018-02-15T01:21:59.222Z,1008.27
2018-02-15T01:22:59.269Z,1008.28
2018-02-15T01:23:59.163Z,1008.27
2018-02-15T01:24:59.180Z,1008.20
2018-02-15T01:25:59.106Z,1008.19
2018-02-15T01:26:59.090Z,1008.18
2018-02-15T01:27:59.044Z,1008.18
2018-02-15T01:28:59.105Z,1008.17
2018-02-15T01:29:58.985Z,1008.15
2018-02-15T01:30:59.013Z,1008.17
2018-02-15T01:31:58.922Z,1008.24
2018-02-15T01:32:58.923Z,1008.22
2018-02-15T01:33:58.870Z,1008.24
2018-02-15T01:34:58.936Z,1008.25
2018-02-15T01:35:58.805Z,1008.31
2018-02-15T01:36:58.845Z,1008.32
2018-02-15T01:37:58.741Z,1008.29
2018-02-15T01:38:58.759Z,1008.35
2018-02-15T01:39:58.688Z,1008.38
2018-02-15T01:40:58.766Z,1008.29
2018-02-15T01:41:58.623Z,1008.38
2018-02-15T01:42:58.682Z,1008.37
2018-02-15T01:43:58.568Z,1008.39
2018-02-15T01:44:58.587Z,1008.39
2018-02-15T01:45:58.507Z,1008.45
2018-02-15T01:46:58.498Z,1008.40
2018-02-15T01:47:58.443Z,1008.41
2018-02-15T01:48:58.510Z,1008.34
2018-02-15T01:49:58.388Z,1008.31
2018-02-15T01:50:58.420Z,1008.29
2018-02-15T01:51:58.326Z,1008.31
2018-02-15T01:52:58.329Z,1008.22
2018-02-15T01:53:58.269Z,1008.26
2018-02-15T01:54:58.342Z,1008.19
2018-02-15T01:55:58.203Z,1008.16
2018-02-15T01:56:58.254Z,1008.16
2018-02-15T01:57:58.142Z,1008.14
2018-02-15T01:58:58.163Z,1008.15
2018-02-15T01:59:58.087Z,1008.14
2018-02-15T02:00:58.074Z,1008.15
2018-02-15T02:01:58.029Z,1008.18
2018-02-15T02:02:58.079Z,1008.10
2018-02-15T02:03:57.968Z,1008.14
2018-02-15T02:04:57.995Z,1008.21
2018-02-15T02:05:57.909Z,1008.13
2018-02-15T02:06:58.932Z,1008.19
2018-02-15T02:07:57.849Z,1008.15
2018-02-15T02:08:57.924Z,1008.20
2018-02-15T02:09:57.787Z,1008.19
2018-02-15T02:10:57.831Z,1008.17
2018-02-15T02:11:57.732Z,1008.21
2018-02-15T02:12:57.739Z,1008.11
2018-02-15T02:13:57.669Z,1008.15
2018-02-15T02:14:57.752Z,1008.13
2018-02-15T02:15:57.609Z,1008.14
2018-02-15T02:16:57.658Z,1008.12
2018-02-15T02:17:57.550Z,1008.18
2018-02-15T02:18:57.573Z,1008.16
2018-02-15T02:19:57.496Z,1008.18
2018-02-15T02:20:57.485Z,1008.06
2018-02-15T02:21:57.431Z,1008.03
2018-02-15T02:22:57.497Z,1008.05
2018-02-15T02:23:57.372Z,1008.00
2018-02-15T02:24:57.409Z,1007.96
2018-02-15T02:25:57.310Z,1007.92
2018-02-15T02:26:57.315Z,1007.81
2018-02-15T02:27:57.255Z,1007.78
2018-02-15T02:28:57.326Z,1007.89
2018-02-15T02:29:57.190Z,1007.88
2018-02-15T02:30:57.241Z,1007.91
2018-02-15T02:31:57.133Z,1007.93
2018-02-15T02:32:57.148Z,1007.88
2018-02-15T02:33:57.071Z,1007.91
2018-02-15T02:34:57.055Z,1007.90
2018-02-15T02:35:57.012Z,1007.91
2018-02-15T02:36:57.069Z,1008.02
2018-02-15T02:37:56.953Z,1007.97
2018-02-15T02:38:56.982Z,1007.93
2018-02-15T02:39:56.893Z,1007.98
2018-02-15T02:40:56.894Z,1007.84
2018-02-15T02:41:56.834Z,1007.89
2018-02-15T02:42:56.904Z,1007.91
2018-02-15T02:43:56.774Z,1007.81
2018-02-15T02:44:56.813Z,1007.85
2018-02-15T02:45:56.714Z,1007.79
2018-02-15T02:46:56.725Z,1007.80
2018-02-15T02:47:56.651Z,1007.84
2018-02-15T02:48:56.741Z,1007.92
2018-02-15T02:49:56.593Z,1007.81
2018-02-15T02:50:56.647Z,1007.79
2018-02-15T02:51:56.535Z,1007.81
2018-02-15T02:52:56.556Z,1007.83
2018-02-15T02:53:56.479Z,1007.78
2018-02-15T02:54:56.467Z,1007.77
2018-02-15T02:55:56.412Z,1007.79
2018-02-15T02:56:56.477Z,1007.82
2018-02-15T02:57:56.355Z,1007.80
2018-02-15T02:58:56.389Z,1007.83
2018-02-15T02:59:56.292Z,1007.86
2018-02-15T03:00:56.298Z,1007.83
2018-02-15T03:01:56.235Z,1007.83
2018-02-15T03:02:56.313Z,1007.86
2018-02-15T03:03:56.169Z,1007.75
2018-02-15T03:04:56.223Z,1007.81
2018-02-15T03:05:56.110Z,1007.88
2018-02-15T03:06:56.135Z,1007.82
2018-02-15T03:07:56.051Z,1007.76
2018-02-15T03:08:56.039Z,1007.78
2018-02-15T03:09:55.987Z,1007.72
2018-02-15T03:10:56.053Z,1007.69
2018-02-15T03:11:55.930Z,1007.68
2018-02-15T03:12:55.966Z,1007.67
2018-02-15T03:13:55.867Z,1007.58
2018-02-15T03:14:55.871Z,1007.58
2018-02-15T03:15:55.805Z,1007.64
2018-02-15T03:16:55.883Z,1007.62
2018-02-15T03:17:55.746Z,1007.63
2018-02-15T03:18:55.798Z,1007.57
2018-02-15T03:19:55.685Z,1007.53
2018-02-15T03:20:55.706Z,1007.50
2018-02-15T03:21:55.624Z,1007.56
2018-02-15T03:22:55.620Z,1007.57
2018-02-15T03:23:55.567Z,1007.59
2018-02-15T03:24:55.630Z,1007.56
2018-02-15T03:25:55.500Z,1007.58
2018-02-15T03:26:55.538Z,1007.57
2018-02-15T03:27:55.544Z,1007.52
2018-02-15T03:28:55.406Z,1007.45
2018-02-15T03:29:55.455Z,1007.46
2018-02-15T03:30:55.350Z,1007.46
2018-02-15T03:31:55.366Z,1007.51
2018-02-15T03:32:55.292Z,1007.45
2018-02-15T03:33:55.275Z,1007.36
2018-02-15T03:34:55.226Z,1007.38
2018-02-15T03:35:55.288Z,1007.37
2018-02-15T03:36:55.167Z,1007.41
2018-02-15T03:37:55.196Z,1007.41
2018-02-15T03:38:55.104Z,1007.44
2018-02-15T03:39:55.108Z,1007.48
2018-02-15T03:40:55.043Z,1007.49
2018-02-15T03:41:55.112Z,1007.48
2018-02-15T03:42:54.988Z,1007.44
2018-02-15T03:43:55.021Z,1007.44
2018-02-15T03:44:54.920Z,1007.49
2018-02-15T03:45:54.941Z,1007.38
2018-02-15T03:46:54.863Z,1007.43
2018-02-15T03:47:54.852Z,1007.43
2018-02-15T03:48:54.798Z,1007.43
2018-02-15T03:49:54.865Z,1007.49
2018-02-15T03:50:54.737Z,1007.50
2018-02-15T03:51:54.774Z,1007.47
2018-02-15T03:52:54.681Z,1007.55
2018-02-15T03:53:54.688Z,1007.46
2018-02-15T03:54:54.616Z,1007.43
2018-02-15T03:55:54.695Z,1007.46
2018-02-15T03:56:54.551Z,1007.42
2018-02-15T03:57:54.606Z,1007.44
2018-02-15T03:58:54.538Z,1007.44
2018-02-15T03:59:54.515Z,1007.36
2018-02-15T04:00:54.430Z,1007.40
2018-02-15T04:01:54.425Z,1007.33
2018-02-15T04:02:54.369Z,1007.27
2018-02-15T04:03:54.438Z,1007.29
2018-02-15T04:04:54.309Z,1007.32
2018-02-15T04:05:54.348Z,1007.30
2018-02-15T04:06:54.246Z,1007.29
2018-02-15T04:07:54.257Z,1007.27
2018-02-15T04:08:54.188Z,1007.26
2018-02-15T04:09:54.170Z,1007.27
2018-02-15T04:10:54.123Z,1007.23
2018-02-15T04:11:54.181Z,1007.23
2018-02-15T04:12:54.063Z,1007.17
2018-02-15T04:13:54.090Z,1007.23
2018-02-15T04:14:54.002Z,1007.04
2018-02-15T04:15:53.998Z,1007.09
2018-02-15T04:16:53.939Z,1007.04
2018-02-15T04:17:54.011Z,1007.03
2018-02-15T04:18:53.877Z,1006.91
2018-02-15T04:19:53.923Z,1006.96
2018-02-15T04:20:53.817Z,1006.98
2018-02-15T04:21:53.833Z,1006.90
2018-02-15T04:22:53.755Z,1006.93
2018-02-15T04:23:53.742Z,1006.94
2018-02-15T04:24:53.696Z,1006.91
2018-02-15T04:25:53.759Z,1007.02
2018-02-15T04:26:53.631Z,1006.96
2018-02-15T04:27:53.667Z,1006.92
2018-02-15T04:28:53.569Z,1007.00
2018-02-15T04:29:53.576Z,1006.91
2018-02-15T04:30:53.507Z,1006.98
2018-02-15T04:31:53.587Z,1006.91
2018-02-15T04:32:53.444Z,1006.87
2018-02-15T04:33:53.499Z,1006.96
2018-02-15T04:34:53.383Z,1006.97
2018-02-15T04:35:53.411Z,1007.03
2018-02-15T04:36:53.326Z,1007.02
2018-02-15T04:37:53.321Z,1007.01
2018-02-15T04:38:53.261Z,1007.07
2018-02-15T04:39:53.336Z,1007.05
2018-02-15T04:40:53.197Z,1007.04
2018-02-15T04:41:53.242Z,1007.01
2018-02-15T04:42:53.133Z,1007.00
2018-02-15T04:43:53.152Z,1006.96
2018-02-15T04:44:53.069Z,1007.02
2018-02-15T04:45:53.061Z,1006.99
2018-02-15T04:46:53.010Z,1007.01
2018-02-15T04:47:53.077Z,1007.01
2018-02-15T04:48:52.947Z,1007.01
2018-02-15T04:49:52.984Z,1007.05
2018-02-15T04:50:52.887Z,1007.05
2018-02-15T04:51:52.894Z,1006.98
2018-02-15T04:52:52.821Z,1006.92
2018-02-15T04:53:52.805Z,1006.96
2018-02-15T04:54:52.759Z,1006.92
2018-02-15T04:55:52.817Z,1006.89
2018-02-15T04:56:52.697Z,1006.79
2018-02-15T04:57:52.726Z,1006.81
2018-02-15T04:58:52.636Z,1006.84
2018-02-15T04:59:52.630Z,1006.91
2018-02-15T05:00:52.572Z,1006.87
2018-02-15T05:01:52.650Z,1006.91
2018-02-15T05:02:52.511Z,1006.83
2018-02-15T05:03:52.560Z,1006.87
2018-02-15T05:04:52.449Z,1006.87
2018-02-15T05:05:52.470Z,1006.81
2018-02-15T05:06:52.385Z,1006.88
2018-02-15T05:07:52.379Z,1006.90
2018-02-15T05:08:52.324Z,1006.87
2018-02-15T05:09:52.390Z,1006.93
2018-02-15T05:10:52.260Z,1006.97
2018-02-15T05:11:52.302Z,1006.97
2018-02-15T05:12:52.200Z,1006.88
2018-02-15T05:13:52.213Z,1006.89
2018-02-15T05:14:52.133Z,1006.89
2018-02-15T05:15:52.124Z,1006.85
2018-02-15T05:16:52.074Z,1006.92
2018-02-15T05:17:52.133Z,1006.83
2018-02-15T05:18:52.010Z,1006.76
2018-02-15T05:19:52.045Z,1006.83
2018-02-15T05:20:51.948Z,1006.78
2018-02-15T05:21:51.955Z,1006.68
2018-02-15T05:22:51.885Z,1006.71
2018-02-15T05:23:51.865Z,1006.65
2018-02-15T05:24:51.827Z,1006.72
2018-02-15T05:25:51.879Z,1006.67
2018-02-15T05:26:51.762Z,1006.61
2018-02-15T05:27:51.788Z,1006.63
2018-02-15T05:28:51.701Z,1006.57
2018-02-15T05:29:51.700Z,1006.53
2018-02-15T05:30:51.641Z,1006.60
2018-02-15T05:31:51.708Z,1006.34
2018-02-15T05:32:51.575Z,1006.48
2018-02-15T05:33:51.620Z,1006.56
2018-02-15T05:34:51.510Z,1006.48
2018-02-15T05:35:51.532Z,1006.55
2018-02-15T05:36:51.445Z,1006.41
2018-02-15T05:37:51.438Z,1006.53
2018-02-15T05:38:51.385Z,1006.59
2018-02-15T05:39:51.457Z,1006.52
2018-02-15T05:40:51.321Z,1006.40
2018-02-15T05:41:51.362Z,1006.48
2018-02-15T05:42:51.259Z,1006.46
2018-02-15T05:43:51.273Z,1006.48
2018-02-15T05:44:51.194Z,1006.41
2018-02-15T05:45:51.181Z,1006.40
2018-02-15T05:46:51.131Z,1006.36
2018-02-15T05:47:51.197Z,1006.32
2018-02-15T05:48:51.070Z,1006.39
2018-02-15T05:49:51.105Z,1006.33
2018-02-15T05:50:51.007Z,1006.30
2018-02-15T05:51:51.015Z,1006.37
2018-02-15T05:52:50.945Z,1006.34
2018-02-15T05:53:50.926Z,1006.42
2018-02-15T05:54:50.898Z,1006.34
2018-02-15T05:55:50.938Z,1006.29
2018-02-15T05:56:50.820Z,1006.33
2018-02-15T05:57:50.853Z,1006.17
2018-02-15T05:58:50.756Z,1006.23
2018-02-15T05:59:50.760Z,1006.18
2018-02-15T06:00:50.698Z,1006.21
2018-02-15T06:01:50.772Z,1006.19
2018-02-15T06:02:50.631Z,1006.17
2018-02-15T06:03:50.681Z,1006.23
2018-02-15T06:04:50.569Z,1006.21
2018-02-15T06:05:50.583Z,1006.24
2018-02-15T06:06:50.506Z,1006.36
2018-02-15T06:07:50.504Z,1006.36
2018-02-15T06:08:50.442Z,1006.27
2018-02-15T06:09:50.513Z,1006.30
2018-02-15T06:10:50.384Z,1006.34
2018-02-15T06:11:50.424Z,1006.26
2018-02-15T06:12:50.319Z,1006.25
2018-02-15T06:13:50.335Z,1006.34
2018-02-15T06:14:50.254Z,1006.36
2018-02-15T06:15:50.243Z,1006.36
2018-02-15T06:16:50.196Z,1006.33
2018-02-15T06:17:50.256Z,1006.29
2018-02-15T06:18:50.136Z,1006.27
2018-02-15T06:19:50.170Z,1006.33
2018-02-15T06:20:50.074Z,1006.29
2018-02-15T06:21:50.123Z,1006.26
2018-02-15T06:22:50.004Z,1006.26
2018-02-15T06:23:50.088Z,1006.22
2018-02-15T06:24:49.945Z,1006.21
2018-02-15T06:25:50.001Z,1006.19
2018-02-15T06:26:49.881Z,1006.38
2018-02-15T06:27:49.909Z,1006.26
2018-02-15T06:28:49.816Z,1006.28
2018-02-15T06:29:49.819Z,1006.31
2018-02-15T06:30:49.756Z,1006.36
2018-02-15T06:31:49.833Z,1006.33
2018-02-15T06:32:49.691Z,1006.35
2018-02-15T06:33:49.743Z,1006.27
2018-02-15T06:34:49.629Z,1006.31
2018-02-15T06:35:49.653Z,1006.32
2018-02-15T06:36:49.564Z,1006.34
2018-02-15T06:37:49.562Z,1006.35
2018-02-15T06:38:49.506Z,1006.33
2018-02-15T06:39:49.575Z,1006.29
2018-02-15T06:40:49.441Z,1006.41
2018-02-15T06:41:49.488Z,1006.38
2018-02-15T06:42:49.383Z,1006.38
2018-02-15T06:43:49.395Z,1006.37
2018-02-15T06:44:49.321Z,1006.37
2018-02-15T06:45:49.303Z,1006.41
2018-02-15T06:46:49.257Z,1006.41
2018-02-15T06:47:49.316Z,1006.46
2018-02-15T06:48:49.197Z,1006.47
2018-02-15T06:49:49.226Z,1006.44
2018-02-15T06:50:49.131Z,1006.45
2018-02-15T06:51:49.138Z,1006.46
2018-02-15T06:52:49.064Z,1006.44
2018-02-15T06:53:49.051Z,1006.52
2018-02-15T06:54:49.005Z,1006.46
2018-02-15T06:55:49.063Z,1006.50
2018-02-15T06:56:48.943Z,1006.50
2018-02-15T06:57:48.971Z,1006.49
2018-02-15T06:58:48.880Z,1006.54
2018-02-15T06:59:48.882Z,1006.51
2018-02-15T07:00:48.821Z,1006.49
2018-02-15T07:01:48.886Z,1006.49
2018-02-15T07:02:48.758Z,1006.57
2018-02-15T07:03:48.802Z,1006.54
2018-02-15T07:04:48.699Z,1006.56
2018-02-15T07:05:49.624Z,1006.55
2018-02-15T07:06:48.633Z,1006.46
2018-02-15T07:07:48.726Z,1006.44
2018-02-15T07:08:48.571Z,1006.41
2018-02-15T07:09:48.738Z,1006.44
2018-02-15T07:10:48.507Z,1006.42
2018-02-15T07:11:48.473Z,1006.37
2018-02-15T07:12:48.657Z,1006.39
2018-02-15T07:13:48.411Z,1006.39
2018-02-15T07:14:48.564Z,1006.37
2018-02-15T07:15:48.351Z,1006.35
2018-02-15T07:16:48.480Z,1006.42
2018-02-15T07:17:48.288Z,1006.39
2018-02-15T07:18:48.290Z,1006.46
2018-02-15T07:19:48.227Z,1006.49
2018-02-15T07:20:48.304Z,1006.40
2018-02-15T07:21:48.161Z,1006.44
2018-02-15T07:22:48.218Z,1006.43
2018-02-15T07:23:48.102Z,1006.47
2018-02-15T07:24:48.127Z,1006.45
2018-02-15T07:25:48.039Z,1006.43
2018-02-15T07:26:48.040Z,1006.42
2018-02-15T07:27:47.977Z,1006.47
2018-02-15T07:28:48.063Z,1006.50
2018-02-15T07:29:47.915Z,1006.48
2018-02-15T07:30:47.963Z,1006.56
2018-02-15T07:31:47.853Z,1006.50
2018-02-15T07:32:47.874Z,1006.52
2018-02-15T07:33:47.794Z,1006.52
2018-02-15T07:34:47.891Z,1006.50
2018-02-15T07:35:47.728Z,1006.54
2018-02-15T07:36:47.802Z,1006.54
2018-02-15T07:37:47.666Z,1006.49
2018-02-15T07:38:47.711Z,1006.59
2018-02-15T07:39:47.608Z,1006.57
2018-02-15T07:40:47.622Z,1006.56
2018-02-15T07:41:47.544Z,1006.63
2018-02-15T07:42:47.630Z,1006.65
2018-02-15T07:43:47.476Z,1006.65
2018-02-15T07:44:47.548Z,1006.65
2018-02-15T07:45:47.423Z,1006.65
2018-02-15T07:46:47.464Z,1006.67
2018-02-15T07:47:47.356Z,1006.69
2018-02-15T07:48:47.373Z,1006.67
2018-02-15T07:49:47.296Z,1006.66
2018-02-15T07:50:47.387Z,1006.65
2018-02-15T07:51:47.233Z,1006.64
2018-02-15T07:52:47.296Z,1006.58
2018-02-15T07:53:47.173Z,1006.58
2018-02-15T07:54:47.211Z,1006.59
2018-02-15T07:55:47.116Z,1006.58
2018-02-15T07:56:47.224Z,1006.52
2018-02-15T07:57:47.049Z,1006.54
2018-02-15T07:58:47.135Z,1006.55
2018-02-15T07:59:46.990Z,1006.53
2018-02-15T08:00:47.046Z,1006.56
2018-02-15T08:01:46.925Z,1006.59
2018-02-15T08:02:46.961Z,1006.60
2018-02-15T08:03:46.864Z,1006.67
2018-02-15T08:04:46.971Z,1006.65
2018-02-15T08:05:46.802Z,1006.60
2018-02-15T08:06:46.884Z,1006.54
2018-02-15T08:07:46.741Z,1006.59
2018-02-15T08:08:46.798Z,1006.55
2018-02-15T08:09:46.679Z,1006.61
2018-02-15T08:10:46.706Z,1006.67
2018-02-15T08:11:46.620Z,1006.70
2018-02-15T08:12:46.723Z,1006.66
2018-02-15T08:13:46.557Z,1006.73
2018-02-15T08:14:46.634Z,1006.66
2018-02-15T08:15:46.496Z,1006.75
2018-02-15T08:16:46.544Z,1006.75
2018-02-15T08:17:46.481Z,1006.76
2018-02-15T08:18:46.557Z,1006.77
2018-02-15T08:19:46.370Z,1006.78
2018-02-15T08:20:46.468Z,1006.78
2018-02-15T08:21:46.313Z,1006.77
2018-02-15T08:22:46.379Z,1006.75
2018-02-15T08:23:46.250Z,1006.71
2018-02-15T08:24:46.297Z,1006.67
2018-02-15T08:25:46.186Z,1006.62
2018-02-15T08:26:46.250Z,1006.67
2018-02-15T08:27:46.127Z,1006.66
2018-02-15T08:28:46.218Z,1006.68
2018-02-15T08:29:46.063Z,1006.67
2018-02-15T08:30:46.130Z,1006.71
2018-02-15T08:31:46.003Z,1006.69
2018-02-15T08:32:46.142Z,1006.71
2018-02-15T08:33:45.940Z,1006.69
2018-02-15T08:34:46.001Z,1006.71
2018-02-15T08:35:45.881Z,1006.69
2018-02-15T08:36:45.967Z,1006.67
2018-02-15T08:37:45.818Z,1006.66
2018-02-15T08:38:45.880Z,1006.66
2018-02-15T08:39:45.758Z,1006.74
2018-02-15T08:40:45.892Z,1006.70
2018-02-15T08:41:45.700Z,1006.72
2018-02-15T08:42:45.802Z,1006.80
2018-02-15T08:43:45.634Z,1006.77
2018-02-15T08:44:45.715Z,1006.79
2018-02-15T08:45:45.571Z,1006.77
2018-02-15T08:46:45.625Z,1006.74
2018-02-15T08:47:45.513Z,1006.74
2018-02-15T08:48:45.642Z,1006.76
2018-02-15T08:49:45.451Z,1006.80
2018-02-15T08:50:45.551Z,1006.82
2018-02-15T08:51:45.389Z,1006.82
2018-02-15T08:52:45.464Z,1006.86
2018-02-15T08:53:45.331Z,1006.86
2018-02-15T08:54:45.476Z,1006.91
2018-02-15T08:55:45.265Z,1006.96
2018-02-15T08:56:45.389Z,1006.94
2018-02-15T08:57:45.206Z,1006.94
2018-02-15T08:58:45.298Z,1006.93
2018-02-15T08:59:45.147Z,1006.90
2018-02-15T09:00:45.115Z,1006.92
2018-02-15T09:01:45.085Z,1006.92
2018-02-15T09:02:45.142Z,1006.94
2018-02-15T09:03:45.024Z,1006.97
2018-02-15T09:04:45.052Z,1006.97
2018-02-15T09:05:44.962Z,1006.93
2018-02-15T09:06:44.934Z,1006.97
2018-02-15T09:07:44.901Z,1007.01
2018-02-15T09:08:44.978Z,1007.02
2018-02-15T09:09:44.839Z,1006.97
2018-02-15T09:10:44.887Z,1007.00
2018-02-15T09:11:44.781Z,1006.92
2018-02-15T09:12:44.796Z,1006.87
2018-02-15T09:13:44.717Z,1006.83
2018-02-15T09:14:44.694Z,1006.84
2018-02-15T09:15:44.803Z,1006.85
2018-02-15T09:16:44.626Z,1006.85
2018-02-15T09:17:44.716Z,1006.83
2018-02-15T09:18:44.566Z,1006.81
2018-02-15T09:19:44.728Z,1006.82
2018-02-15T09:20:44.635Z,1006.94
2018-02-15T09:21:44.476Z,1006.90
2018-02-15T09:22:44.648Z,1006.91
2018-02-15T09:23:44.414Z,1006.90
2018-02-15T09:24:44.590Z,1006.83
2018-02-15T09:25:44.354Z,1006.84
2018-02-15T09:26:44.323Z,1006.89
2018-02-15T09:27:44.472Z,1006.87
2018-02-15T09:28:44.264Z,1006.91
2018-02-15T09:29:44.387Z,1006.91
2018-02-15T09:30:44.202Z,1006.90
2018-02-15T09:31:44.296Z,1006.95
2018-02-15T09:32:44.140Z,1006.93
2018-02-15T09:33:44.311Z,1006.93
2018-02-15T09:34:44.078Z,1007.02
2018-02-15T09:35:44.227Z,1007.04
2018-02-15T09:36:44.022Z,1007.11
2018-02-15T09:37:44.137Z,1007.07
2018-02-15T09:38:43.961Z,1007.02
2018-02-15T09:39:44.150Z,1007.02
2018-02-15T09:40:43.899Z,1007.03
2018-02-15T09:41:43.960Z,1007.07
2018-02-15T09:42:43.842Z,1007.03
2018-02-15T09:43:43.873Z,1007.06
2018-02-15T09:44:43.779Z,1007.08
2018-02-15T09:45:43.820Z,1007.14
2018-02-15T09:46:43.718Z,1007.15
2018-02-15T09:47:43.804Z,1007.09
2018-02-15T09:48:43.657Z,1007.12
2018-02-15T09:49:43.704Z,1007.12
2018-02-15T09:50:43.597Z,1007.14
2018-02-15T09:51:43.619Z,1007.16
2018-02-15T09:52:43.537Z,1007.17
2018-02-15T09:53:43.634Z,1007.21
2018-02-15T09:54:43.476Z,1007.22
2018-02-15T09:55:43.546Z,1007.25
2018-02-15T09:56:43.417Z,1007.22
2018-02-15T09:57:43.457Z,1007.24
2018-02-15T09:58:43.356Z,1007.31
2018-02-15T09:59:43.371Z,1007.29
2018-02-15T10:00:43.294Z,1007.27
2018-02-15T10:01:43.383Z,1007.21
2018-02-15T10:02:43.238Z,1007.21
2018-02-15T10:03:43.293Z,1007.21
2018-02-15T10:04:43.174Z,1007.26
2018-02-15T10:05:43.202Z,1007.23
2018-02-15T10:06:43.115Z,1007.25
2018-02-15T10:07:43.118Z,1007.21
2018-02-15T10:08:43.056Z,1007.23
2018-02-15T10:09:43.131Z,1007.24
2018-02-15T10:10:43.034Z,1007.20
2018-02-15T10:11:42.963Z,1007.25
2018-02-15T10:12:42.947Z,1007.30
2018-02-15T10:13:42.905Z,1007.32
2018-02-15T10:14:42.962Z,1007.38
2018-02-15T10:15:42.842Z,1007.35
2018-02-15T10:16:42.812Z,1007.36
2018-02-15T10:17:42.880Z,1007.29
2018-02-15T10:18:42.751Z,1007.37
2018-02-15T10:19:42.801Z,1007.31
2018-02-15T10:20:42.692Z,1007.28
2018-02-15T10:21:42.703Z,1007.29
2018-02-15T10:22:42.630Z,1007.27
2018-02-15T10:23:43.918Z,1007.32
2018-02-15T10:24:42.575Z,1007.29
2018-02-15T10:25:42.638Z,1007.31
2018-02-15T10:26:42.508Z,1007.31
2018-02-15T10:27:42.537Z,1007.29
2018-02-15T10:28:42.451Z,1007.33
2018-02-15T10:29:42.453Z,1007.30
2018-02-15T10:30:42.391Z,1007.32
2018-02-15T10:31:42.463Z,1007.37
2018-02-15T10:32:42.332Z,1007.40
2018-02-15T10:33:42.377Z,1007.40
2018-02-15T10:34:42.278Z,1007.40
2018-02-15T10:35:42.288Z,1007.43
2018-02-15T10:36:42.209Z,1007.41
2018-02-15T10:37:42.197Z,1007.40
2018-02-15T10:38:42.149Z,1007.43
2018-02-15T10:39:42.214Z,1007.39
2018-02-15T10:40:42.090Z,1007.42
2018-02-15T10:41:42.125Z,1007.43
2018-02-15T10:42:42.028Z,1007.41
2018-02-15T10:43:42.036Z,1007.42
2018-02-15T10:44:41.969Z,1007.42
2018-02-15T10:45:42.049Z,1007.44
2018-02-15T10:46:41.909Z,1007.46
2018-02-15T10:47:41.964Z,1007.45
2018-02-15T10:48:41.849Z,1007.46
2018-02-15T10:49:41.873Z,1007.52
2018-02-15T10:50:41.789Z,1007.45
2018-02-15T10:51:41.785Z,1007.49
2018-02-15T10:52:41.734Z,1007.53
2018-02-15T10:53:41.798Z,1007.52
2018-02-15T10:54:41.674Z,1007.52
2018-02-15T10:55:41.713Z,1007.49
2018-02-15T10:56:41.609Z,1007.54
2018-02-15T10:57:41.622Z,1007.56
2018-02-15T10:58:41.552Z,1007.51
2018-02-15T10:59:41.634Z,1007.52
2018-02-15T11:00:41.492Z,1007.49
2018-02-15T11:01:41.548Z,1007.50
2018-02-15T11:02:41.452Z,1007.50
2018-02-15T11:03:41.462Z,1007.54
2018-02-15T11:04:41.368Z,1007.59
2018-02-15T11:05:41.369Z,1007.58
2018-02-15T11:06:41.311Z,1007.57
2018-02-15T11:07:41.383Z,1007.55
2018-02-15T11:08:41.252Z,1007.60
2018-02-15T11:09:41.295Z,1007.65
2018-02-15T11:10:41.194Z,1007.66
2018-02-15T11:11:41.207Z,1007.63
2018-02-15T11:12:41.132Z,1007.64
2018-02-15T11:13:41.109Z,1007.60
2018-02-15T11:14:41.071Z,1007.59
2018-02-15T11:15:41.132Z,1007.58
2018-02-15T11:16:41.013Z,1007.59
2018-02-15T11:17:41.044Z,1007.59
2018-02-15T11:18:40.953Z,1007.59
2018-02-15T11:19:40.957Z,1007.56
2018-02-15T11:20:40.892Z,1007.60
2018-02-15T11:21:40.987Z,1007.62
2018-02-15T11:22:40.836Z,1007.59
2018-02-15T11:23:41.904Z,1007.58
2018-02-15T11:24:40.773Z,1007.61
2018-02-15T11:25:40.794Z,1007.59
2018-02-15T11:26:40.715Z,1007.56
2018-02-15T11:27:40.705Z,1007.59
2018-02-15T11:28:40.652Z,1007.60
2018-02-15T11:29:40.628Z,1007.62
2018-02-15T11:30:40.593Z,1007.59
2018-02-15T11:31:40.625Z,1007.62
2018-02-15T11:32:40.538Z,1007.59
2018-02-15T11:33:40.542Z,1007.63
2018-02-15T11:34:40.478Z,1007.67
2018-02-15T11:35:40.557Z,1007.65
2018-02-15T11:36:40.417Z,1007.64
2018-02-15T11:37:40.467Z,1007.65
2018-02-15T11:38:40.349Z,1007.68
2018-02-15T11:39:40.380Z,1007.65
2018-02-15T11:40:40.301Z,1007.66
2018-02-15T11:41:40.293Z,1007.68
2018-02-15T11:42:40.312Z,1007.72
2018-02-15T11:43:40.304Z,1007.68
2018-02-15T11:44:40.191Z,1007.74
2018-02-15T11:45:40.241Z,1007.80
2018-02-15T11:46:40.123Z,1007.78
2018-02-15T11:47:40.126Z,1007.80
2018-02-15T11:48:40.067Z,1007.80
2018-02-15T11:49:40.175Z,1007.88
2018-02-15T11:50:40.006Z,1007.82
2018-02-15T11:51:40.052Z,1007.83
2018-02-15T11:52:39.943Z,1007.82
2018-02-15T11:53:39.964Z,1007.81
2018-02-15T11:54:39.886Z,1007.83
2018-02-15T11:55:39.874Z,1007.85
2018-02-15T11:56:39.839Z,1007.84
2018-02-15T11:57:39.887Z,1007.92
2018-02-15T11:58:39.768Z,1007.85
2018-02-15T11:59:39.799Z,1007.80
2018-02-15T12:00:39.708Z,1007.84
2018-02-15T12:01:39.712Z,1007.85
2018-02-15T12:02:39.648Z,1007.80
2018-02-15T12:03:39.730Z,1007.81
2018-02-15T12:04:39.591Z,1007.75